createdAt,value
2023-03-05T00:00:53.117Z,98.26
2023-03-05T00:03:39.902Z,99.16
2023-03-05T00:06:26.782Z,99.80
2023-03-05T00:09:12.863Z,100.00
2023-03-05T00:11:53.619Z,100.00
2023-03-05T00:14:36.916Z,100.00
2023-03-05T00:17:15.833Z,100.00
2023-03-05T00:19:57.123Z,100.00
2023-03-05T00:22:39.705Z,100.00
2023-03-05T00:25:23.556Z,100.00
2023-03-05T00:28:02.210Z,100.00
2023-03-05T00:30:43.010Z,100.00
2023-03-05T00:33:24.230Z,100.00
2023-03-05T00:36:16.924Z,100.00
2023-03-05T00:38:54.198Z,100.00
2023-03-05T00:41:31.875Z,100.00
2023-03-05T00:44:13.233Z,100.00
2023-03-05T00:47:04.958Z,100.00
2023-03-05T00:49:48.342Z,100.00
2023-03-05T00:52:41.821Z,100.00
2023-03-05T00:55:28.240Z,100.00
2023-03-05T00:58:23.504Z,100.00
2023-03-05T01:01:03.362Z,100.00
2023-03-05T01:03:51.935Z,100.00
2023-03-05T01:06:31.349Z,100.00
2023-03-05T01:09:20.235Z,100.00
2023-03-05T01:12:01.090Z,100.00
2023-03-05T01:14:44.792Z,100.00
2023-03-05T01:17:34.598Z,100.00
2023-03-05T01:20:25.378Z,100.00
2023-03-05T01:23:05.636Z,100.00
2023-03-05T01:25:49.578Z,100.00
2023-03-05T01:28:33.327Z,100.00
2023-03-05T01:31:26.773Z,100.00
2023-03-05T01:34:21.939Z,100.00
2023-03-05T01:37:15.901Z,100.00
2023-03-05T01:40:01.760Z,100.00
2023-03-05T01:42:48.223Z,100.00
2023-03-05T01:45:36.715Z,100.00
2023-03-05T01:48:31.936Z,100.00
2023-03-05T01:51:15.865Z,100.00
2023-03-05T01:53:58.828Z,100.00
2023-03-05T01:56:46.668Z,100.00
2023-03-05T01:59:34.543Z,100.00
2023-03-05T02:02:23.557Z,100.00
2023-03-05T02:05:41.741Z,100.00
2023-03-05T02:08:25.359Z,100.00
2023-03-05T02:11:14.624Z,100.00
2023-03-05T02:14:07.329Z,100.00
2023-03-05T02:16:52.904Z,100.00
2023-03-05T02:19:31.080Z,100.00
2023-03-05T02:22:23.920Z,100.00
2023-03-05T02:25:21.576Z,100.00
2023-03-05T02:28:14.958Z,100.00
2023-03-05T02:31:00.674Z,100.00
2023-03-05T02:33:49.720Z,100.00
2023-03-05T02:36:28.626Z,100.00
2023-03-05T02:39:11.480Z,100.00
2023-03-05T02:41:46.059Z,99.80
2023-03-05T02:44:43.822Z,99.72
2023-03-05T02:47:27.881Z,98.74
2023-03-05T02:50:12.263Z,98.78
2023-03-05T02:53:00.962Z,99.23
2023-03-05T02:55:53.929Z,99.15
2023-03-05T02:58:37.229Z,98.37
2023-03-05T03:01:25.863Z,99.34
2023-03-05T03:04:14.956Z,99.31
2023-03-05T03:06:58.689Z,98.70
2023-03-05T03:09:39.823Z,98.70
2023-03-05T03:12:26.096Z,99.27
2023-03-05T03:15:23.191Z,98.31
2023-03-05T03:18:10.864Z,98.44
2023-03-05T03:21:11.107Z,99.07
2023-03-05T03:24:01.979Z,99.35
2023-03-05T03:26:50.483Z,98.45
2023-03-05T03:29:30.731Z,99.12
2023-03-05T03:32:13.968Z,99.11
2023-03-05T03:34:57.529Z,99.57
2023-03-05T03:37:52.015Z,99.57
2023-03-05T03:40:36.898Z,98.50
2023-03-05T03:43:20.183Z,98.95
2023-03-05T03:46:02.197Z,99.13
2023-03-05T03:48:34.530Z,98.86
2023-03-05T03:51:23.933Z,98.36
2023-03-05T03:54:04.740Z,98.74
2023-03-05T03:56:43.460Z,98.69
2023-03-05T03:59:32.240Z,99.03
2023-03-05T04:02:21.861Z,98.52
2023-03-05T04:05:11.043Z,98.47
2023-03-05T04:08:01.495Z,98.46
2023-03-05T04:10:49.790Z,97.81
2023-03-05T04:13:33.579Z,97.55
2023-03-05T04:16:19.909Z,98.07
2023-03-05T04:19:18.834Z,97.36
2023-03-05T04:22:13.452Z,97.03
2023-03-05T04:24:52.448Z,96.40
2023-03-05T04:27:38.024Z,96.54
2023-03-05T04:30:32.838Z,96.36
2023-03-05T04:33:20.221Z,96.60
2023-03-05T04:36:10.329Z,97.62
2023-03-05T04:39:05.770Z,96.32
2023-03-05T04:41:44.482Z,96.03
2023-03-05T04:44:30.703Z,94.94
2023-03-05T04:47:17.396Z,95.72
2023-03-05T04:50:09.443Z,95.89
2023-03-05T04:53:04.233Z,95.34
2023-03-05T04:55:48.562Z,96.02
2023-03-05T04:58:35.818Z,96.00
2023-03-05T05:01:16.697Z,96.33
2023-03-05T05:03:58.890Z,96.39
2023-03-05T05:06:41.802Z,96.34
2023-03-05T05:09:22.670Z,96.06
2023-03-05T05:12:11.482Z,96.62
2023-03-05T05:14:56.914Z,95.89
2023-03-05T05:17:48.145Z,95.98
2023-03-05T05:20:47.121Z,96.09
2023-03-05T05:23:30.883Z,95.98
2023-03-05T05:26:26.820Z,96.18
2023-03-05T05:29:04.889Z,95.85
2023-03-05T05:31:49.250Z,97.13
2023-03-05T05:34:32.188Z,97.29
2023-03-05T05:37:20.634Z,97.29
2023-03-05T05:40:12.869Z,96.31
2023-03-05T05:43:02.505Z,96.92
2023-03-05T05:45:46.770Z,96.18
2023-03-05T05:48:28.935Z,96.40
2023-03-05T05:51:22.033Z,96.01
2023-03-05T05:54:05.102Z,96.20
2023-03-05T05:56:54.845Z,95.33
2023-03-05T05:59:41.941Z,95.49
2023-03-05T06:02:33.773Z,95.58
2023-03-05T06:05:21.564Z,94.75
2023-03-05T06:08:04.768Z,94.26
2023-03-05T06:10:50.802Z,94.57
2023-03-05T06:13:34.362Z,93.80
2023-03-05T06:16:25.073Z,92.95
2023-03-05T06:19:11.887Z,92.93
2023-03-05T06:21:53.853Z,92.69
2023-03-05T06:24:36.868Z,92.27
2023-03-05T06:27:23.267Z,92.40
2023-03-05T06:30:09.538Z,92.07
2023-03-05T06:32:53.496Z,91.38
2023-03-05T06:35:34.906Z,91.36
2023-03-05T06:38:27.053Z,90.94
2023-03-05T06:41:13.862Z,90.99
2023-03-05T06:44:00.124Z,90.60
2023-03-05T06:46:42.678Z,90.70
2023-03-05T06:49:15.197Z,90.72
2023-03-05T06:52:01.112Z,91.36
2023-03-05T06:54:39.822Z,90.51
2023-03-05T06:57:22.821Z,91.63
2023-03-05T07:00:11.711Z,90.72
2023-03-05T07:02:52.645Z,91.64
2023-03-05T07:05:36.283Z,90.17
2023-03-05T07:08:27.097Z,89.58
2023-03-05T07:11:28.897Z,89.64
2023-03-05T07:14:18.610Z,89.71
2023-03-05T07:17:04.594Z,90.25
2023-03-05T07:19:45.843Z,90.62
2023-03-05T07:22:31.858Z,90.59
2023-03-05T07:25:21.839Z,89.74
2023-03-05T07:28:08.264Z,88.68
2023-03-05T07:30:49.432Z,88.90
2023-03-05T07:33:36.704Z,90.56
2023-03-05T07:36:26.882Z,89.31
2023-03-05T07:39:07.163Z,90.00
2023-03-05T07:41:52.859Z,88.99
2023-03-05T07:44:50.314Z,89.32
2023-03-05T07:47:35.106Z,88.62
2023-03-05T07:50:17.616Z,89.17
2023-03-05T07:53:09.622Z,89.73
2023-03-05T07:55:54.869Z,90.21
2023-03-05T07:58:41.568Z,90.18
2023-03-05T08:01:28.049Z,89.78
2023-03-05T08:04:11.588Z,90.60
2023-03-05T08:06:50.462Z,89.75
2023-03-05T08:09:39.943Z,89.24
2023-03-05T08:12:26.212Z,89.78
2023-03-05T08:15:04.049Z,89.31
2023-03-05T08:17:53.837Z,89.60
2023-03-05T08:20:42.798Z,88.58
2023-03-05T08:23:39.061Z,89.26
2023-03-05T08:26:27.134Z,87.92
2023-03-05T08:29:13.369Z,87.37
2023-03-05T08:31:56.304Z,87.09
2023-03-05T08:34:33.985Z,87.00
2023-03-05T08:37:23.845Z,87.01
2023-03-05T08:40:07.157Z,87.25
2023-03-05T08:42:52.826Z,86.36
2023-03-05T08:45:47.506Z,86.58
2023-03-05T08:48:33.572Z,86.27
2023-03-05T08:51:27.148Z,85.82
2023-03-05T08:54:18.178Z,84.57
2023-03-05T08:57:02.862Z,84.62
2023-03-05T08:59:52.177Z,83.66
2023-03-05T09:02:33.911Z,83.75
2023-03-05T09:05:22.165Z,83.15
2023-03-05T09:08:09.830Z,82.51
2023-03-05T09:11:00.233Z,82.44
2023-03-05T09:13:38.263Z,82.17
2023-03-05T09:16:20.649Z,81.17
2023-03-05T09:19:17.999Z,80.70
2023-03-05T09:22:02.877Z,79.87
2023-03-05T09:24:52.575Z,79.88
2023-03-05T09:27:44.637Z,79.66
2023-03-05T09:30:31.277Z,79.55
2023-03-05T09:33:24.272Z,79.86
2023-03-05T09:36:09.827Z,78.78
2023-03-05T09:38:50.672Z,79.35
2023-03-05T09:41:48.883Z,79.51
2023-03-05T09:45:02.751Z,80.01
2023-03-05T09:48:20.649Z,79.88
2023-03-05T09:51:10.088Z,80.30
2023-03-05T09:54:31.828Z,80.76
2023-03-05T09:57:18.474Z,81.77
2023-03-05T10:00:08.880Z,82.38
2023-03-05T10:03:04.843Z,83.27
2023-03-05T10:05:59.562Z,83.77
2023-03-05T10:09:01.892Z,84.65
2023-03-05T10:11:54.914Z,84.16
2023-03-05T10:14:44.128Z,85.56
2023-03-05T10:17:49.325Z,85.82
2023-03-05T10:21:00.550Z,84.92
2023-03-05T10:24:07.791Z,83.73
2023-03-05T10:27:22.331Z,82.77
2023-03-05T10:30:30.262Z,80.40
2023-03-05T10:33:26.227Z,78.04
2023-03-05T10:36:36.837Z,79.56
2023-03-05T10:39:31.968Z,79.27
2023-03-05T10:42:39.654Z,77.71
2023-03-05T10:45:48.107Z,75.68
2023-03-05T10:48:46.468Z,77.03
2023-03-05T10:51:34.338Z,75.73
2023-03-05T10:54:30.703Z,75.47
2023-03-05T10:57:38.857Z,73.87
2023-03-05T11:00:42.173Z,72.89
2023-03-05T11:03:23.688Z,72.30
2023-03-05T11:06:12.735Z,71.88
2023-03-05T11:09:00.981Z,74.46
2023-03-05T11:11:45.761Z,72.44
2023-03-05T11:14:39.138Z,70.40
2023-03-05T11:17:38.457Z,71.96
2023-03-05T11:21:05.709Z,71.33
2023-03-05T11:23:53.340Z,71.40
2023-03-05T11:26:35.596Z,70.37
2023-03-05T11:29:32.532Z,71.10
2023-03-05T11:32:25.911Z,71.13
2023-03-05T11:35:23.836Z,70.57
2023-03-05T11:38:12.171Z,71.84
2023-03-05T11:40:56.428Z,71.50
2023-03-05T11:43:52.773Z,72.32
2023-03-05T11:46:39.413Z,72.91
2023-03-05T11:49:46.830Z,72.70
2023-03-05T11:52:56.946Z,72.54
2023-03-05T11:55:56.796Z,73.67
2023-03-05T11:59:08.871Z,73.42
2023-03-05T12:02:01.115Z,74.06
2023-03-05T12:04:54.363Z,73.99
2023-03-05T12:07:45.227Z,72.99
2023-03-05T12:10:30.327Z,73.23
2023-03-05T12:13:41.474Z,72.50
2023-03-05T12:16:38.920Z,72.54
2023-03-05T12:19:36.289Z,72.95
2023-03-05T12:22:29.674Z,72.07
2023-03-05T12:25:37.976Z,71.64
2023-03-05T12:28:20.157Z,71.38
2023-03-05T12:31:21.626Z,72.12
2023-03-05T12:34:23.112Z,69.85
2023-03-05T12:37:15.530Z,69.48
2023-03-05T12:40:07.305Z,68.08
2023-03-05T12:43:00.190Z,66.65
2023-03-05T12:45:46.787Z,67.10
2023-03-05T12:49:05.372Z,64.36
2023-03-05T12:51:50.580Z,63.74
2023-03-05T12:54:44.838Z,63.79
2023-03-05T12:57:26.125Z,62.73
2023-03-05T13:00:53.785Z,64.16
2023-03-05T13:03:52.469Z,63.13
2023-03-05T13:06:36.620Z,65.14
2023-03-05T13:09:33.597Z,64.74
2023-03-05T13:12:23.335Z,65.50
2023-03-05T13:15:09.797Z,65.93
2023-03-05T13:18:22.529Z,66.91
2023-03-05T13:21:22.178Z,66.44
2023-03-05T13:24:05.386Z,67.64
2023-03-05T13:26:51.449Z,67.83
2023-03-05T13:29:35.967Z,68.73
2023-03-05T13:32:34.316Z,69.05
2023-03-05T13:35:18.160Z,69.84
2023-03-05T13:38:01.806Z,69.88
2023-03-05T13:40:44.752Z,69.90
2023-03-05T13:43:34.608Z,70.31
2023-03-05T13:46:25.088Z,69.73
2023-03-05T13:49:30.567Z,69.67
2023-03-05T13:52:15.888Z,69.49
2023-03-05T13:55:00.261Z,67.94
2023-03-05T13:57:47.565Z,67.31
2023-03-05T14:00:42.133Z,66.82
2023-03-05T14:03:34.901Z,65.01
2023-03-05T14:06:28.992Z,64.13
2023-03-05T14:09:50.397Z,64.50
2023-03-05T14:12:51.480Z,62.61
2023-03-05T14:15:40.287Z,62.59
2023-03-05T14:18:33.835Z,62.17
2023-03-05T14:21:20.362Z,61.35
2023-03-05T14:23:55.774Z,61.89
2023-03-05T14:27:06.987Z,61.29
2023-03-05T14:29:55.760Z,61.95
2023-03-05T14:32:42.877Z,62.64
2023-03-05T14:35:54.178Z,62.41
2023-03-05T14:38:48.829Z,62.94
2023-03-05T14:41:49.110Z,63.67
2023-03-05T14:44:36.095Z,63.80
2023-03-05T14:47:13.946Z,63.50
2023-03-05T14:50:03.817Z,63.76
2023-03-05T14:52:39.220Z,64.34
2023-03-05T14:55:23.115Z,64.20
2023-03-05T14:58:15.308Z,63.62
2023-03-05T15:01:02.360Z,63.64
2023-03-05T15:03:43.225Z,63.39
2023-03-05T15:06:40.490Z,63.16
2023-03-05T15:09:21.839Z,62.60
2023-03-05T15:12:13.946Z,63.18
2023-03-05T15:15:18.864Z,63.77
2023-03-05T15:17:57.517Z,63.68
2023-03-05T15:20:40.999Z,64.21
2023-03-05T15:23:33.175Z,64.32
2023-03-05T15:26:15.829Z,65.13
2023-03-05T15:29:13.615Z,65.92
2023-03-05T15:32:04.472Z,66.53
2023-03-05T15:34:58.828Z,67.17
2023-03-05T15:37:44.632Z,66.86
2023-03-05T15:40:32.455Z,67.61
2023-03-05T15:43:15.390Z,66.72
2023-03-05T15:45:57.851Z,67.08
2023-03-05T15:48:50.248Z,66.90
2023-03-05T15:51:30.764Z,67.63
2023-03-05T15:54:09.846Z,67.48
2023-03-05T15:56:54.211Z,67.89
2023-03-05T15:59:40.514Z,66.99
2023-03-05T16:02:20.624Z,67.08
2023-03-05T16:05:07.847Z,67.24
2023-03-05T16:07:53.820Z,67.12
2023-03-05T16:10:39.255Z,67.43
2023-03-05T16:13:28.680Z,67.62
2023-03-05T16:16:14.738Z,67.47
2023-03-05T16:18:51.030Z,67.72
2023-03-05T16:21:36.030Z,67.01
2023-03-05T16:24:25.570Z,67.42
2023-03-05T16:27:04.628Z,67.92
2023-03-05T16:29:51.192Z,67.07
2023-03-05T16:32:42.157Z,67.15
2023-03-05T16:35:28.678Z,67.45
2023-03-05T16:38:08.823Z,68.16
2023-03-05T16:41:07.192Z,67.52
2023-03-05T16:43:57.059Z,66.89
2023-03-05T16:46:43.468Z,67.47
2023-03-05T16:49:21.652Z,67.32
2023-03-05T16:52:18.198Z,66.95
2023-03-05T16:54:59.695Z,67.20
2023-03-05T16:57:51.208Z,67.17
2023-03-05T17:00:37.877Z,66.96
2023-03-05T17:03:21.488Z,67.38
2023-03-05T17:06:13.919Z,67.06
2023-03-05T17:08:52.838Z,67.21
2023-03-05T17:11:41.619Z,67.26
2023-03-05T17:14:27.795Z,67.23
2023-03-05T17:17:11.789Z,67.03
2023-03-05T17:19:57.556Z,66.54
2023-03-05T17:22:48.086Z,67.03
2023-03-05T17:25:28.796Z,67.65
2023-03-05T17:28:31.044Z,66.56
2023-03-05T17:31:14.937Z,66.70
2023-03-05T17:34:11.898Z,66.51
2023-03-05T17:37:06.350Z,66.68
2023-03-05T17:40:08.315Z,66.46
2023-03-05T17:43:00.755Z,66.08
2023-03-05T17:45:47.603Z,66.37
2023-03-05T17:48:32.519Z,66.11
2023-03-05T17:51:21.976Z,66.43
2023-03-05T17:54:09.801Z,66.23
2023-03-05T17:56:56.787Z,66.06
2023-03-05T17:59:41.501Z,66.52
2023-03-05T18:02:58.301Z,66.42
2023-03-05T18:06:00.516Z,67.53
2023-03-05T18:08:44.616Z,67.95
2023-03-05T18:11:30.375Z,68.19
2023-03-05T18:14:16.928Z,67.84
2023-03-05T18:17:00.957Z,67.61
2023-03-05T18:19:39.890Z,67.29
2023-03-05T18:22:31.802Z,67.86
2023-03-05T18:25:22.564Z,67.99
2023-03-05T18:28:12.989Z,67.36
2023-03-05T18:31:19.421Z,67.81
2023-03-05T18:34:03.180Z,67.77
2023-03-05T18:36:46.980Z,68.09
2023-03-05T18:39:29.770Z,68.11
2023-03-05T18:42:14.832Z,69.08
2023-03-05T18:45:03.571Z,69.48
2023-03-05T18:47:59.664Z,69.84
2023-03-05T18:50:40.858Z,69.47
2023-03-05T18:53:30.787Z,69.61
2023-03-05T18:56:22.121Z,70.05
2023-03-05T18:59:10.487Z,70.43
2023-03-05T19:01:53.901Z,70.68
2023-03-05T19:04:46.331Z,70.82
2023-03-05T19:07:41.245Z,70.35
2023-03-05T19:10:23.786Z,70.24
2023-03-05T19:13:57.130Z,71.09
2023-03-05T19:16:56.508Z,71.92
2023-03-05T19:19:43.888Z,71.88
2023-03-05T19:22:36.231Z,71.68
2023-03-05T19:25:23.542Z,72.59
2023-03-05T19:28:17.219Z,72.65
2023-03-05T19:31:14.401Z,73.13
2023-03-05T19:33:57.303Z,73.47
2023-03-05T19:36:40.980Z,74.21
2023-03-05T19:39:24.384Z,74.71
2023-03-05T19:42:17.074Z,75.64
2023-03-05T19:45:17.504Z,75.63
2023-03-05T19:48:03.753Z,75.47
2023-03-05T19:50:51.384Z,75.89
2023-03-05T19:53:29.634Z,77.27
2023-03-05T19:56:15.782Z,77.54
2023-03-05T19:59:10.266Z,77.06
2023-03-05T20:02:00.465Z,76.79
2023-03-05T20:04:52.861Z,76.69
2023-03-05T20:07:59.250Z,77.04
2023-03-05T20:10:39.831Z,77.27
2023-03-05T20:13:29.752Z,77.79
2023-03-05T20:16:25.296Z,78.38
2023-03-05T20:19:10.746Z,79.39
2023-03-05T20:21:49.844Z,79.91
2023-03-05T20:24:30.642Z,81.27
2023-03-05T20:27:20.779Z,80.83
2023-03-05T20:30:05.088Z,81.45
2023-03-05T20:32:53.297Z,82.60
2023-03-05T20:35:45.548Z,82.25
2023-03-05T20:38:37.382Z,82.48
2023-03-05T20:41:29.796Z,84.68
2023-03-05T20:44:18.876Z,84.58
2023-03-05T20:47:37.690Z,84.00
2023-03-05T20:50:22.966Z,83.19
2023-03-05T20:53:10.205Z,83.40
2023-03-05T20:56:10.064Z,82.58
2023-03-05T20:59:01.315Z,82.54
2023-03-05T21:01:51.077Z,82.40
2023-03-05T21:04:40.556Z,82.71
2023-03-05T21:07:29.749Z,82.59
2023-03-05T21:10:22.347Z,82.90
2023-03-05T21:13:08.769Z,83.41
2023-03-05T21:15:58.355Z,83.39
2023-03-05T21:18:52.079Z,82.92
2023-03-05T21:21:45.734Z,83.18
2023-03-05T21:25:03.378Z,83.78
2023-03-05T21:28:04.734Z,84.01
2023-03-05T21:30:59.902Z,84.93
2023-03-05T21:33:49.140Z,84.31
2023-03-05T21:36:38.143Z,84.58
2023-03-05T21:39:27.608Z,85.26
2023-03-05T21:42:20.178Z,85.25
2023-03-05T21:45:15.569Z,85.08
2023-03-05T21:48:02.273Z,84.85
2023-03-05T21:50:53.851Z,85.02
2023-03-05T21:53:42.975Z,84.34
2023-03-05T21:56:41.378Z,83.20
2023-03-05T21:59:21.995Z,83.14
2023-03-05T22:02:14.380Z,83.64
2023-03-05T22:05:03.971Z,83.01
2023-03-05T22:08:00.423Z,82.67
2023-03-05T22:10:48.072Z,83.10
2023-03-05T22:13:31.660Z,83.31
2023-03-05T22:16:16.186Z,83.92
2023-03-05T22:19:10.428Z,83.86
2023-03-05T22:21:54.264Z,84.13
2023-03-05T22:24:52.600Z,83.69
2023-03-05T22:27:36.517Z,83.50
2023-03-05T22:30:18.772Z,83.04
2023-03-05T22:32:59.388Z,82.22
2023-03-05T22:35:52.773Z,81.64
2023-03-05T22:38:36.595Z,81.34
2023-03-05T22:41:21.365Z,81.99
2023-03-05T22:44:09.109Z,81.79
2023-03-05T22:47:03.121Z,83.11
2023-03-05T22:49:52.014Z,82.49
2023-03-05T22:52:39.603Z,83.07
2023-03-05T22:55:24.776Z,83.44
2023-03-05T22:58:08.957Z,83.73
2023-03-05T23:00:54.775Z,83.94
2023-03-05T23:03:42.948Z,82.51
2023-03-05T23:06:32.784Z,83.87
2023-03-05T23:09:22.255Z,83.71
2023-03-05T23:12:05.853Z,83.88
2023-03-05T23:14:46.018Z,84.05
2023-03-05T23:17:33.290Z,84.51
2023-03-05T23:20:21.181Z,84.47
2023-03-05T23:23:19.777Z,84.32
2023-03-05T23:26:09.225Z,84.53
2023-03-05T23:28:54.952Z,85.02
2023-03-05T23:31:38.777Z,85.22
2023-03-05T23:34:19.661Z,85.19
2023-03-05T23:37:06.063Z,84.94
2023-03-05T23:39:52.544Z,84.79
2023-03-05T23:42:33.741Z,85.13
2023-03-05T23:45:27.210Z,86.25
2023-03-05T23:48:16.788Z,84.69
2023-03-05T23:51:01.348Z,84.35
2023-03-05T23:53:49.442Z,83.70
2023-03-05T23:56:32.226Z,83.82
2023-03-05T23:59:21.653Z,83.65
